Time;durP1;ratioP1;P1;durP2;ratioP2;P2;SDS_P1;SDS_P2;PMS_P1;PMS_P2;Temp;Humidity;BMP_temperature;BMP_pressure;BME280_temperature;BME280_humidity;BME280_pressure;Samples;Min_cycle;Max_cycle;Signal;HPM_P1;HPM_P2
2022/06/24 00:01:57;;;;;;;2.25;1.35;;;;;;;;;;5136924;27;20055;-48
2022/06/24 00:04:23;;;;;;;3.05;1.45;;;;;;;;;;5138342;27;20058;-44
2022/06/24 00:06:49;;;;;;;3.80;2.10;;;;;;;;;;5138583;27;20081;-43
2022/06/24 00:09:15;;;;;;;2.63;1.58;;;;;;;;;;5141062;27;21003;-45
2022/06/24 00:11:40;;;;;;;6.32;2.45;;;;;;;;;;5138034;27;20054;-47
2022/06/24 00:14:15;;;;;;;3.25;1.95;;;;;;;;;;5137601;27;20191;-44
2022/06/24 00:16:53;;;;;;;10.50;3.17;;;;;;;;;;5137827;27;20043;-46
2022/06/24 00:19:19;;;;;;;6.95;1.60;;;;;;;;;;5137340;27;20049;-43
2022/06/24 00:21:56;;;;;;;5.72;1.75;;;;;;;;;;5138634;27;20482;-47
2022/06/24 00:24:24;;;;;;;5.28;2.00;;;;;;;;;;5140777;27;20144;-47
2022/06/24 00:26:49;;;;;;;2.97;1.45;;;;;;;;;;5134161;27;20075;-45
2022/06/24 00:29:18;;;;;;;10.05;2.10;;;;;;;;;;5135799;27;20510;-46
2022/06/24 00:32:03;;;;;;;2.83;1.40;;;;;;;;;;5139185;27;20107;-46
2022/06/24 00:34:28;;;;;;;5.30;1.77;;;;;;;;;;5141255;27;20043;-46
2022/06/24 00:36:54;;;;;;;9.48;2.60;;;;;;;;;;5136823;27;20054;-47
2022/06/24 00:39:19;;;;;;;4.07;2.60;;;;;;;;;;5140800;27;20059;-45
2022/06/24 00:41:50;;;;;;;10.35;2.67;;;;;;;;;;5139461;27;20072;-44
2022/06/24 00:44:15;;;;;;;;;;;;;;;;;;5138559;27;20058;-48
2022/06/24 00:46:41;;;;;;;6.90;3.13;;;;;;;;;;5137354;27;19915;-47
2022/06/24 00:49:07;;;;;;;4.53;1.35;;;;;;;;;;5133743;27;20074;-45
2022/06/24 00:51:39;;;;;;;6.68;2.15;;;;;;;;;;5139574;27;20039;-48
2022/06/24 00:54:23;;;;;;;6.35;2.05;;;;;;;;;;5141558;27;20387;-45
2022/06/24 00:56:53;;;;;;;7.90;2.05;;;;;;;;;;5142206;27;20043;-48
2022/06/24 00:59:18;;;;;;;4.17;2.57;;;;;;;;;;5140073;27;20147;-44
2022/06/24 01:01:44;;;;;;;4.82;1.63;;;;;;;;;;5139015;27;20492;-47
2022/06/24 01:04:10;;;;;;;4.95;2.75;;;;;;;;;;5143610;27;20860;-47
2022/06/24 01:06:37;;;;;;;7.22;3.22;;;;;;;;;;5135420;27;20125;-45
2022/06/24 01:09:02;;;;;;;5.22;2.35;;;;;;;;;;5134517;27;20047;-44
2022/06/24 01:11:27;;;;;;;6.35;2.53;;;;;;;;;;5137290;27;20050;-46
2022/06/24 01:13:53;;;;;;;6.72;2.58;;;;;;;;;;5138135;27;20081;-45
2022/06/24 01:16:25;;;;;;;4.95;2.45;;;;;;;;;;5136722;27;20039;-44
2022/06/24 01:18:51;;;;;;;8.40;2.38;;;;;;;;;;5138842;27;20110;-44
2022/06/24 01:21:35;;;;;;;7.22;2.83;;;;;;;;;;5139227;27;20055;-43
2022/06/24 01:24:06;;;;;;;5.78;2.95;;;;;;;;;;5140013;27;20042;-45
2022/06/24 01:26:32;;;;;;;5.45;2.10;;;;;;;;;;5136622;27;20054;-48
2022/06/24 01:28:58;;;;;;;6.97;2.35;;;;;;;;;;5138101;27;20047;-47
2022/06/24 01:31:23;;;;;;;5.95;1.80;;;;;;;;;;5138489;27;20192;-49
2022/06/24 01:33:48;;;;;;;3.60;1.90;;;;;;;;;;5139512;27;20042;-50
2022/06/24 01:36:14;;;;;;;5.85;2.65;;;;;;;;;;5140312;27;20070;-44
2022/06/24 01:38:39;;;;;;;7.35;2.55;;;;;;;;;;5136399;27;20544;-47
2022/06/24 01:41:04;;;;;;;11.52;2.63;;;;;;;;;;5134626;27;20038;-45
2022/06/24 01:43:30;;;;;;;6.47;2.63;;;;;;;;;;5136714;27;20066;-45
2022/06/24 01:45:56;;;;;;;3.70;2.38;;;;;;;;;;5137048;27;20477;-45
2022/06/24 01:48:21;;;;;;;6.50;2.15;;;;;;;;;;5136959;27;20046;-45
2022/06/24 01:50:46;;;;;;;6.43;2.45;;;;;;;;;;5135471;27;20053;-47
2022/06/24 01:53:12;;;;;;;10.65;3.20;;;;;;;;;;5138581;27;20096;-44
2022/06/24 01:55:37;;;;;;;9.20;2.15;;;;;;;;;;5134324;27;20061;-44
2022/06/24 01:58:02;;;;;;;6.38;1.55;;;;;;;;;;5140649;27;20034;-44
2022/06/24 02:00:28;;;;;;;17.55;2.65;;;;;;;;;;5137520;27;20042;-46
2022/06/24 02:02:54;;;;;;;6.72;2.38;;;;;;;;;;5135707;27;20054;-50
2022/06/24 02:05:19;;;;;;;13.27;2.95;;;;;;;;;;5137231;27;20127;-48
2022/06/24 02:07:45;;;;;;;10.10;2.72;;;;;;;;;;5134848;27;20107;-45
2022/06/24 02:15:38;;;;;;;7.72;1.80;;;;;;;;;;5142649;27;20574;-47
2022/06/24 02:18:03;;;;;;;13.98;2.70;;;;;;;;;;5140611;27;20089;-45
2022/06/24 02:20:28;;;;;;;6.55;2.42;;;;;;;;;;5139345;27;20046;-45
2022/06/24 02:22:54;;;;;;;7.38;2.05;;;;;;;;;;5135085;27;20608;-47
2022/06/24 02:25:19;;;;;;;4.20;2.13;;;;;;;;;;5139155;27;20413;-49
2022/06/24 02:27:45;;;;;;;4.82;2.13;;;;;;;;;;5117158;27;20039;-44
2022/06/24 02:30:11;;;;;;;5.40;2.30;;;;;;;;;;5136077;27;20429;-50
2022/06/24 02:32:36;;;;;;;13.93;2.30;;;;;;;;;;5135869;27;20528;-45
2022/06/24 02:35:01;;;;;;;12.68;3.42;;;;;;;;;;5137253;27;20035;-46
2022/06/24 02:37:27;;;;;;;3.22;2.00;;;;;;;;;;5138341;27;20027;-47
2022/06/24 02:39:52;;;;;;;4.45;2.03;;;;;;;;;;5136436;27;20787;-48
2022/06/24 02:42:18;;;;;;;3.63;1.85;;;;;;;;;;5135575;27;20567;-45
2022/06/24 02:44:43;;;;;;;8.80;1.73;;;;;;;;;;5135358;27;20046;-46
2022/06/24 02:47:08;;;;;;;7.82;2.65;;;;;;;;;;5140129;27;20775;-46
2022/06/24 02:49:34;;;;;;;3.05;1.40;;;;;;;;;;5118932;27;20047;-48
2022/06/24 02:51:59;;;;;;;2.50;1.30;;;;;;;;;;5135574;27;20489;-46
2022/06/24 02:54:24;;;;;;;4.60;2.03;;;;;;;;;;5136798;27;20074;-44
2022/06/24 02:56:49;;;;;;;4.28;2.70;;;;;;;;;;5136136;27;20102;-44
2022/06/24 02:59:15;;;;;;;8.02;2.85;;;;;;;;;;5134858;27;20051;-45
2022/06/24 03:01:40;;;;;;;5.65;2.45;;;;;;;;;;5135867;27;20576;-46
2022/06/24 03:04:05;;;;;;;19.80;2.75;;;;;;;;;;5133668;27;20682;-48
2022/06/24 03:06:31;;;;;;;8.75;2.05;;;;;;;;;;5134618;27;20489;-44
2022/06/24 03:08:56;;;;;;;13.70;2.28;;;;;;;;;;5135609;27;20099;-46
2022/06/24 03:11:21;;;;;;;10.82;2.67;;;;;;;;;;5137194;27;20458;-45
2022/06/24 03:13:47;;;;;;;3.03;1.50;;;;;;;;;;5139086;27;20043;-46
2022/06/24 03:16:12;;;;;;;9.55;3.72;;;;;;;;;;5136831;27;20165;-48
2022/06/24 03:18:37;;;;;;;8.93;4.10;;;;;;;;;;5133675;27;20113;-44
2022/06/24 03:21:05;;;;;;;3.28;1.98;;;;;;;;;;5136898;27;20539;-46
2022/06/24 03:23:30;;;;;;;4.13;2.45;;;;;;;;;;5139620;27;20047;-50
2022/06/24 03:25:55;;;;;;;8.43;4.18;;;;;;;;;;5141715;27;20042;-44
2022/06/24 03:28:21;;;;;;;9.88;3.00;;;;;;;;;;5141399;27;20126;-44
2022/06/24 03:30:46;;;;;;;7.53;2.47;;;;;;;;;;5141367;27;20130;-45
2022/06/24 03:33:11;;;;;;;13.15;4.38;;;;;;;;;;5142111;27;20092;-47
2022/06/24 03:35:37;;;;;;;4.28;2.78;;;;;;;;;;5144861;27;20516;-48
2022/06/24 03:38:02;;;;;;;11.48;4.05;;;;;;;;;;5143348;27;20054;-46
2022/06/24 03:40:28;;;;;;;6.55;2.90;;;;;;;;;;5143694;27;20051;-46
2022/06/24 03:42:53;;;;;;;9.98;3.08;;;;;;;;;;5139813;27;20039;-51
2022/06/24 03:45:19;;;;;;;9.93;2.40;;;;;;;;;;5143337;27;20098;-45
2022/06/24 03:47:44;;;;;;;7.55;3.78;;;;;;;;;;5141004;27;20046;-46
2022/06/24 03:50:10;;;;;;;13.70;2.90;;;;;;;;;;5143791;27;20406;-43
2022/06/24 03:52:35;;;;;;;6.50;1.80;;;;;;;;;;5143256;27;20497;-44
2022/06/24 03:55:00;;;;;;;10.40;2.28;;;;;;;;;;5141150;27;20034;-47
2022/06/24 03:57:25;;;;;;;8.30;2.72;;;;;;;;;;5143061;27;20066;-45
2022/06/24 03:59:51;;;;;;;14.15;2.75;;;;;;;;;;5142167;27;20150;-46
2022/06/24 04:02:18;;;;;;;9.05;3.05;;;;;;;;;;5138042;27;20046;-47
2022/06/24 04:04:43;;;;;;;4.25;2.15;;;;;;;;;;5142732;27;20604;-46
2022/06/24 04:07:08;;;;;;;5.93;2.03;;;;;;;;;;5141244;27;20046;-43
2022/06/24 04:09:34;;;;;;;8.75;2.22;;;;;;;;;;5142607;27;20043;-44
2022/06/24 04:11:59;;;;;;;12.73;3.28;;;;;;;;;;5138607;27;20034;-45
2022/06/24 04:17:08;;;;;;;7.35;2.80;;;;;;;;;;5141674;27;20078;-43
2022/06/24 04:19:34;;;;;;;10.93;3.00;;;;;;;;;;5139041;27;20504;-48
2022/06/24 04:21:59;;;;;;;11.15;3.78;;;;;;;;;;5145021;27;20042;-44
2022/06/24 04:24:24;;;;;;;13.80;2.35;;;;;;;;;;5142695;27;20065;-48
2022/06/24 04:26:50;;;;;;;7.53;3.67;;;;;;;;;;5141300;27;20042;-46
2022/06/24 04:29:15;;;;;;;8.40;2.40;;;;;;;;;;5142461;27;20475;-49
2022/06/24 04:31:40;;;;;;;16.63;3.92;;;;;;;;;;5138255;27;20486;-43
2022/06/24 04:34:06;;;;;;;2.65;2.08;;;;;;;;;;5141673;27;20047;-47
2022/06/24 04:36:31;;;;;;;3.88;1.80;;;;;;;;;;5143917;27;20142;-47
2022/06/24 04:38:56;;;;;;;12.27;3.00;;;;;;;;;;5140630;27;20043;-50
2022/06/24 04:41:22;;;;;;;7.32;2.83;;;;;;;;;;5141866;27;20047;-49
2022/06/24 04:43:47;;;;;;;13.18;3.75;;;;;;;;;;5140467;27;20154;-46
2022/06/24 04:46:12;;;;;;;8.60;2.90;;;;;;;;;;5142093;27;20054;-46
2022/06/24 04:48:38;;;;;;;6.43;3.30;;;;;;;;;;5140453;27;20513;-49
2022/06/24 04:51:03;;;;;;;7.60;2.53;;;;;;;;;;5138150;27;21095;-48
2022/06/24 04:53:29;;;;;;;5.82;2.03;;;;;;;;;;5141228;27;20455;-48
2022/06/24 04:55:54;;;;;;;10.10;3.28;;;;;;;;;;5139751;27;20039;-45
2022/06/24 04:58:20;;;;;;;9.55;4.15;;;;;;;;;;5139286;27;20197;-45
2022/06/24 05:00:45;;;;;;;7.20;2.67;;;;;;;;;;5135909;27;20561;-48
2022/06/24 05:03:10;;;;;;;8.82;3.28;;;;;;;;;;5139089;27;20493;-46
2022/06/24 05:05:36;;;;;;;9.77;3.25;;;;;;;;;;5141288;27;20046;-49
2022/06/24 05:08:01;;;;;;;6.55;2.78;;;;;;;;;;5139306;27;20039;-46
2022/06/24 05:10:26;;;;;;;5.75;3.60;;;;;;;;;;5140997;27;20447;-49
2022/06/24 05:12:51;;;;;;;7.55;2.63;;;;;;;;;;5140667;27;20047;-49
2022/06/24 05:15:17;;;;;;;8.73;2.97;;;;;;;;;;5139228;27;20062;-47
2022/06/24 05:17:42;;;;;;;7.50;2.58;;;;;;;;;;5144102;27;20077;-48
2022/06/24 05:20:08;;;;;;;5.65;3.33;;;;;;;;;;5139306;27;20517;-47
2022/06/24 05:22:33;;;;;;;7.78;4.60;;;;;;;;;;5142015;27;20997;-45
2022/06/24 05:24:58;;;;;;;6.03;2.67;;;;;;;;;;5142900;27;20039;-48
2022/06/24 05:27:24;;;;;;;16.90;4.93;;;;;;;;;;5144633;27;20410;-50
2022/06/24 05:29:49;;;;;;;14.02;3.67;;;;;;;;;;5140144;27;20118;-47
2022/06/24 05:32:15;;;;;;;8.77;4.55;;;;;;;;;;5139736;27;20050;-49
2022/06/24 05:34:40;;;;;;;7.03;3.53;;;;;;;;;;5140489;27;20039;-51
2022/06/24 05:37:05;;;;;;;6.28;2.85;;;;;;;;;;5140479;27;20043;-50
2022/06/24 05:39:31;;;;;;;5.72;3.03;;;;;;;;;;5142377;27;20413;-48
2022/06/24 05:41:56;;;;;;;7.43;2.13;;;;;;;;;;5142554;27;20166;-44
2022/06/24 05:44:21;;;;;;;8.85;3.45;;;;;;;;;;5137812;27;20047;-42
2022/06/24 05:46:47;;;;;;;19.95;9.52;;;;;;;;;;5142889;27;20061;-44
2022/06/24 05:49:12;;;;;;;18.70;5.43;;;;;;;;;;5138694;27;20051;-43
2022/06/24 05:51:37;;;;;;;6.43;2.78;;;;;;;;;;5138477;27;20046;-43
2022/06/24 05:56:47;;;;;;;4.75;2.08;;;;;;;;;;5139002;27;20046;-47
2022/06/24 05:59:13;;;;;;;13.30;4.18;;;;;;;;;;5143657;27;20050;-49
2022/06/24 06:01:39;;;;;;;5.95;2.13;;;;;;;;;;5143649;27;20386;-47
2022/06/24 06:04:04;;;;;;;3.90;1.55;;;;;;;;;;5141005;27;20039;-41
2022/06/24 06:06:29;;;;;;;10.85;2.95;;;;;;;;;;5141711;27;20039;-43
2022/06/24 06:08:57;;;;;;;6.00;2.25;;;;;;;;;;5136518;27;20043;-43
2022/06/24 06:11:23;;;;;;;6.90;2.42;;;;;;;;;;5136900;27;20058;-43
2022/06/24 06:13:50;;;;;;;11.27;1.83;;;;;;;;;;5138854;27;20462;-43
2022/06/24 06:16:16;;;;;;;7.07;2.53;;;;;;;;;;5138140;27;20149;-43
2022/06/24 06:18:41;;;;;;;12.60;1.75;;;;;;;;;;5140285;27;20076;-43
2022/06/24 06:21:07;;;;;;;12.05;2.67;;;;;;;;;;5139550;27;20497;-43
2022/06/24 06:23:33;;;;;;;5.00;2.65;;;;;;;;;;5139459;27;20072;-43
2022/06/24 06:26:00;;;;;;;44.08;7.25;;;;;;;;;;5139346;27;20124;-43
2022/06/24 06:28:25;;;;;;;14.00;3.85;;;;;;;;;;5136783;27;20046;-43
2022/06/24 06:30:50;;;;;;;9.43;2.33;;;;;;;;;;5140085;27;20395;-43
2022/06/24 06:33:16;;;;;;;9.43;3.22;;;;;;;;;;5137733;27;20548;-33
2022/06/24 06:35:41;;;;;;;4.55;2.47;;;;;;;;;;5133026;27;20027;-34
2022/06/24 06:38:07;;;;;;;4.03;2.35;;;;;;;;;;5140503;27;20056;-34
2022/06/24 06:40:35;;;;;;;7.57;3.22;;;;;;;;;;5140115;27;20108;-35
2022/06/24 06:43:01;;;;;;;8.35;2.90;;;;;;;;;;5136321;27;20041;-34
2022/06/24 06:45:29;;;;;;;3.83;1.98;;;;;;;;;;5114485;27;20043;-34
2022/06/24 06:47:55;;;;;;;5.75;2.15;;;;;;;;;;5137956;27;20079;-37
2022/06/24 06:50:20;;;;;;;15.82;3.00;;;;;;;;;;5118392;27;20135;-34
2022/06/24 06:52:45;;;;;;;7.95;2.75;;;;;;;;;;5137301;27;20270;-35
2022/06/24 06:55:11;;;;;;;5.85;2.50;;;;;;;;;;5134016;27;20035;-34
2022/06/24 06:57:37;;;;;;;13.10;2.80;;;;;;;;;;5139126;27;20584;-34
2022/06/24 07:00:05;;;;;;;11.80;3.40;;;;;;;;;;5139772;27;20043;-34
2022/06/24 07:02:31;;;;;;;10.25;2.25;;;;;;;;;;5139427;27;20035;-34
2022/06/24 07:04:56;;;;;;;7.75;2.75;;;;;;;;;;5136435;27;20043;-34
2022/06/24 07:07:21;;;;;;;8.98;2.58;;;;;;;;;;5139613;27;20042;-35
2022/06/24 07:09:47;;;;;;;11.98;2.80;;;;;;;;;;5139046;27;20043;-34
2022/06/24 07:12:13;;;;;;;6.40;1.30;;;;;;;;;;5139533;27;20042;-36
2022/06/24 07:14:41;;;;;;;21.58;2.83;;;;;;;;;;5133131;27;20042;-34
2022/06/24 07:17:07;;;;;;;30.05;6.13;;;;;;;;;;5136252;27;20049;-35
2022/06/24 07:19:33;;;;;;;17.10;5.20;;;;;;;;;;5137097;27;20039;-34
2022/06/24 07:21:58;;;;;;;13.57;4.53;;;;;;;;;;5134738;27;20067;-34
2022/06/24 07:24:23;;;;;;;5.50;3.13;;;;;;;;;;5115671;27;20071;-34
2022/06/24 07:26:48;;;;;;;14.63;4.72;;;;;;;;;;5138240;27;20161;-35
2022/06/24 07:29:14;;;;;;;7.15;3.15;;;;;;;;;;5133925;27;20039;-34
2022/06/24 07:31:39;;;;;;;9.27;2.47;;;;;;;;;;5134293;27;20043;-35
2022/06/24 07:34:06;;;;;;;12.30;3.70;;;;;;;;;;5137705;27;20103;-42
2022/06/24 07:36:31;;;;;;;10.40;3.95;;;;;;;;;;5139591;27;20488;-42
2022/06/24 07:38:56;;;;;;;8.60;3.10;;;;;;;;;;5138148;27;20034;-40
2022/06/24 07:41:22;;;;;;;5.57;1.90;;;;;;;;;;5118819;27;20040;-40
2022/06/24 07:43:47;;;;;;;8.43;4.68;;;;;;;;;;5137983;27;20499;-39
2022/06/24 07:46:13;;;;;;;6.60;2.22;;;;;;;;;;5137487;27;20047;-42
2022/06/24 07:48:38;;;;;;;11.80;3.38;;;;;;;;;;5139550;27;20075;-41
2022/06/24 07:51:07;;;;;;;5.68;2.05;;;;;;;;;;5138154;27;20042;-38
2022/06/24 07:53:33;;;;;;;10.10;3.03;;;;;;;;;;5141559;27;20051;-44
2022/06/24 07:58:42;;;;;;;5.47;2.28;;;;;;;;;;5139728;27;20116;-52
2022/06/24 08:01:07;;;;;;;3.08;1.15;;;;;;;;;;5134725;27;20074;-55
2022/06/24 08:03:33;;;;;;;7.30;2.47;;;;;;;;;;5135463;27;20039;-49
2022/06/24 08:05:58;;;;;;;4.43;2.67;;;;;;;;;;5130767;27;20458;-53
2022/06/24 08:08:23;;;;;;;6.80;2.25;;;;;;;;;;5138507;27;20049;-51
2022/06/24 08:10:49;;;;;;;10.85;2.25;;;;;;;;;;5136882;27;20039;-50
2022/06/24 08:13:14;;;;;;;4.78;1.48;;;;;;;;;;5135631;27;20047;-50
2022/06/24 08:15:39;;;;;;;3.55;0.98;;;;;;;;;;5136986;27;20053;-49
2022/06/24 08:18:05;;;;;;;2.63;1.48;;;;;;;;;;5141973;27;20045;-52
2022/06/24 08:20:30;;;;;;;8.30;2.42;;;;;;;;;;5140289;27;20050;-57
2022/06/24 08:22:55;;;;;;;3.22;1.92;;;;;;;;;;5140701;27;20074;-57
2022/06/24 08:25:20;;;;;;;5.35;2.75;;;;;;;;;;5139692;27;20121;-57
2022/06/24 08:27:46;;;;;;;8.00;2.63;;;;;;;;;;5136013;27;20134;-58
2022/06/24 08:30:11;;;;;;;4.65;0.93;;;;;;;;;;5144463;27;20057;-58
2022/06/24 08:32:37;;;;;;;5.57;1.77;;;;;;;;;;5139545;27;20158;-57
2022/06/24 08:35:03;;;;;;;8.70;3.70;;;;;;;;;;5139818;27;20565;-57
2022/06/24 08:37:28;;;;;;;17.38;3.85;;;;;;;;;;5139925;27;20047;-41
2022/06/24 08:39:54;;;;;;;2.95;1.85;;;;;;;;;;5136880;27;20046;-48
2022/06/24 08:42:19;;;;;;;13.40;2.03;;;;;;;;;;5131837;27;20039;-45
2022/06/24 08:44:45;;;;;;;4.22;2.10;;;;;;;;;;5138139;27;20049;-47
2022/06/24 08:47:14;;;;;;;14.48;2.35;;;;;;;;;;5134764;27;20039;-42
2022/06/24 08:49:40;;;;;;;7.45;2.97;;;;;;;;;;5142923;27;20037;-41
2022/06/24 08:52:08;;;;;;;6.25;2.90;;;;;;;;;;5136760;27;20038;-42
2022/06/24 08:54:34;;;;;;;5.88;2.15;;;;;;;;;;5139831;27;20082;-43
2022/06/24 08:56:59;;;;;;;4.32;1.33;;;;;;;;;;5140317;27;20505;-42
2022/06/24 08:59:27;;;;;;;7.53;3.20;;;;;;;;;;5139124;27;20031;-43
2022/06/24 09:01:52;;;;;;;6.63;2.38;;;;;;;;;;5143620;27;20106;-41
2022/06/24 09:04:20;;;;;;;11.00;2.05;;;;;;;;;;5139470;27;20129;-42
2022/06/24 09:06:45;;;;;;;9.27;1.27;;;;;;;;;;5141676;27;20414;-41
2022/06/24 09:09:12;;;;;;;5.65;2.75;;;;;;;;;;5138769;27;20052;-42
2022/06/24 09:11:41;;;;;;;7.35;4.25;;;;;;;;;;5140834;27;20116;-43
2022/06/24 09:14:07;;;;;;;2.58;1.52;;;;;;;;;;5143754;27;20057;-43
2022/06/24 09:16:35;;;;;;;11.20;4.43;;;;;;;;;;5139434;27;20382;-43
2022/06/24 09:19:00;;;;;;;13.02;1.73;;;;;;;;;;5137933;27;20101;-42
2022/06/24 09:21:28;;;;;;;10.00;2.63;;;;;;;;;;5139430;27;20549;-42
2022/06/24 09:24:02;;;;;;;6.28;3.55;;;;;;;;;;5140372;27;20051;-45
2022/06/24 09:26:31;;;;;;;22.05;2.97;;;;;;;;;;5137867;27;20077;-42
2022/06/24 09:28:56;;;;;;;10.45;2.63;;;;;;;;;;5140593;27;20054;-42
2022/06/24 09:31:23;;;;;;;11.38;2.90;;;;;;;;;;5138597;27;20282;-40
2022/06/24 09:33:49;;;;;;;5.93;2.45;;;;;;;;;;5141663;27;20039;-41
2022/06/24 09:36:14;;;;;;;11.95;2.92;;;;;;;;;;5135589;27;20590;-42
2022/06/24 09:38:53;;;;;;;7.85;3.13;;;;;;;;;;5134855;27;20111;-41
2022/06/24 09:41:19;;;;;;;6.13;2.20;;;;;;;;;;5137312;27;20066;-42
2022/06/24 09:43:44;;;;;;;8.80;3.08;;;;;;;;;;5139754;27;20043;-43
2022/06/24 09:46:16;;;;;;;10.32;3.47;;;;;;;;;;5139030;27;20047;-46
2022/06/24 09:48:41;;;;;;;5.07;2.85;;;;;;;;;;5135432;27;20081;-41
2022/06/24 09:51:07;;;;;;;26.65;3.67;;;;;;;;;;5134152;27;20031;-40
2022/06/24 09:53:36;;;;;;;9.70;2.63;;;;;;;;;;5136347;27;20648;-41
2022/06/24 09:56:07;;;;;;;7.72;2.88;;;;;;;;;;5138947;27;20035;-41
2022/06/24 09:58:32;;;;;;;;;;;;;;;;;;5138462;27;20043;-42
2022/06/24 10:00:58;;;;;;;10.37;3.93;;;;;;;;;;5140334;27;19963;-40
2022/06/24 10:03:23;;;;;;;9.00;3.70;;;;;;;;;;5142804;27;20466;-41
2022/06/24 10:05:49;;;;;;;14.48;5.22;;;;;;;;;;5141540;27;20043;-40
2022/06/24 10:08:19;;;;;;;12.75;3.40;;;;;;;;;;5140734;27;20071;-40
2022/06/24 10:10:46;;;;;;;16.52;4.22;;;;;;;;;;5140198;27;20035;-44
2022/06/24 10:13:17;;;;;;;6.88;2.70;;;;;;;;;;5135569;27;20035;-40
2022/06/24 10:15:42;;;;;;;16.15;4.75;;;;;;;;;;5139350;27;20126;-40
2022/06/24 10:18:09;;;;;;;16.73;2.55;;;;;;;;;;5141133;27;20055;-59
2022/06/24 10:20:35;;;;;;;14.85;2.97;;;;;;;;;;5137970;27;20038;-57
2022/06/24 10:23:00;;;;;;;9.40;3.05;;;;;;;;;;5140782;27;20050;-55
2022/06/24 10:26:01;;;;;;;11.82;4.00;;;;;;;;;;5136288;27;20458;-55
2022/06/24 10:28:26;;;;;;;4.93;1.33;;;;;;;;;;5060935;28;20078;-57
2022/06/24 10:30:54;;;;;;;5.38;3.30;;;;;;;;;;5117744;27;20038;-56
2022/06/24 10:33:21;;;;;;;14.07;2.08;;;;;;;;;;5135096;27;20045;-56
2022/06/24 10:36:05;;;;;;;3.80;1.65;;;;;;;;;;5138478;27;20524;-57
2022/06/24 10:38:35;;;;;;;3.83;1.98;;;;;;;;;;5137932;27;20118;-57
2022/06/24 10:41:01;;;;;;;8.70;2.10;;;;;;;;;;5139757;27;20047;-55
2022/06/24 10:43:38;;;;;;;8.02;3.42;;;;;;;;;;5140790;27;20042;-56
2022/06/24 10:46:13;;;;;;;2.70;1.90;;;;;;;;;;5141026;27;20148;-57
2022/06/24 10:48:44;;;;;;;10.18;1.50;;;;;;;;;;5138876;27;20430;-56
2022/06/24 10:51:20;;;;;;;34.20;4.13;;;;;;;;;;5139452;27;20046;-51
2022/06/24 10:54:09;;;;;;;14.85;2.97;;;;;;;;;;5141866;27;20043;-52
2022/06/24 10:56:41;;;;;;;5.95;1.33;;;;;;;;;;5138962;27;20585;-51
2022/06/24 10:59:07;;;;;;;2.55;1.35;;;;;;;;;;5124586;27;20900;-52
2022/06/24 11:01:32;;;;;;;8.18;1.27;;;;;;;;;;5139709;27;20061;-53
2022/06/24 11:03:59;;;;;;;4.28;0.77;;;;;;;;;;5138703;27;20051;-52
2022/06/24 11:06:24;;;;;;;3.08;1.85;;;;;;;;;;5135957;27;20046;-53
2022/06/24 11:08:50;;;;;;;9.10;2.05;;;;;;;;;;5139205;27;20054;-52
2022/06/24 11:11:31;;;;;;;4.32;1.25;;;;;;;;;;5136858;27;20501;-54
2022/06/24 11:13:56;;;;;;;3.75;1.40;;;;;;;;;;5138563;27;20047;-50
2022/06/24 11:16:25;;;;;;;7.00;2.28;;;;;;;;;;5135504;27;20099;-56
2022/06/24 11:18:50;;;;;;;5.93;2.63;;;;;;;;;;5137253;27;20043;-56
2022/06/24 11:21:19;;;;;;;2.45;0.93;;;;;;;;;;5136315;27;20274;-54
2022/06/24 11:23:46;;;;;;;6.95;2.42;;;;;;;;;;5138745;27;20039;-56
2022/06/24 11:26:11;;;;;;;7.28;2.83;;;;;;;;;;5133615;27;20130;-57
2022/06/24 11:28:37;;;;;;;10.60;2.03;;;;;;;;;;5136051;27;20568;-56
2022/06/24 11:31:17;;;;;;;12.73;3.72;;;;;;;;;;5135867;27;20071;-57
2022/06/24 11:33:43;;;;;;;14.30;3.47;;;;;;;;;;5141217;27;20074;-57
2022/06/24 11:36:10;;;;;;;3.63;0.93;;;;;;;;;;5139272;27;20039;-57
2022/06/24 11:38:48;;;;;;;3.50;1.33;;;;;;;;;;5137825;27;20035;-56
2022/06/24 11:41:25;;;;;;;3.45;1.63;;;;;;;;;;5141078;27;20042;-57
2022/06/24 11:43:51;;;;;;;3.65;1.98;;;;;;;;;;5136682;27;20195;-57
2022/06/24 11:46:17;;;;;;;7.57;2.22;;;;;;;;;;5134394;27;20122;-58
2022/06/24 11:48:42;;;;;;;3.20;1.73;;;;;;;;;;5137798;27;20572;-57
2022/06/24 11:51:16;;;;;;;4.20;1.42;;;;;;;;;;5140273;27;20151;-57
2022/06/24 11:53:43;;;;;;;7.47;2.67;;;;;;;;;;5140180;27;20050;-57
2022/06/24 11:56:08;;;;;;;3.00;1.20;;;;;;;;;;5142521;27;20050;-57
2022/06/24 11:58:35;;;;;;;4.18;2.33;;;;;;;;;;5145535;27;20049;-56
2022/06/24 12:01:00;;;;;;;5.93;1.55;;;;;;;;;;5145129;27;20139;-57
2022/06/24 12:03:26;;;;;;;5.78;2.30;;;;;;;;;;5141934;27;20043;-57
2022/06/24 12:05:51;;;;;;;3.35;0.70;;;;;;;;;;5141774;27;20713;-57
2022/06/24 12:08:18;;;;;;;0.60;0.25;;;;;;;;;;5142537;27;20053;-57
2022/06/24 12:10:51;;;;;;;3.83;1.67;;;;;;;;;;5141435;27;20537;-56
2022/06/24 12:13:27;;;;;;;4.72;1.50;;;;;;;;;;5143691;27;20050;-57
2022/06/24 12:15:53;;;;;;;12.18;2.55;;;;;;;;;;5137918;27;20045;-57
2022/06/24 12:18:19;;;;;;;2.17;0.73;;;;;;;;;;5139964;27;20050;-57
2022/06/24 12:21:14;;;;;;;6.43;2.40;;;;;;;;;;5138626;27;20043;-57
2022/06/24 12:23:42;;;;;;;6.80;2.03;;;;;;;;;;5120389;27;20070;-57
2022/06/24 12:26:14;;;;;;;8.40;2.28;;;;;;;;;;5140182;27;20072;-58
2022/06/24 12:28:40;;;;;;;18.70;3.80;;;;;;;;;;5140256;27;20044;-55
2022/06/24 12:31:06;;;;;;;12.57;2.33;;;;;;;;;;5137991;27;20047;-57
2022/06/24 12:33:36;;;;;;;5.15;1.55;;;;;;;;;;5142923;27;20126;-57
2022/06/24 12:36:06;;;;;;;8.85;2.20;;;;;;;;;;5141561;27;20086;-57
2022/06/24 12:38:31;;;;;;;14.83;2.10;;;;;;;;;;5140798;27;20074;-57
2022/06/24 12:41:09;;;;;;;7.80;3.03;;;;;;;;;;5138826;27;20076;-56
2022/06/24 12:43:35;;;;;;;9.63;2.83;;;;;;;;;;5139545;27;20043;-57
2022/06/24 12:46:04;;;;;;;6.60;2.80;;;;;;;;;;5141981;27;20039;-57
2022/06/24 12:51:13;;;;;;;3.80;2.25;;;;;;;;;;5137881;27;20105;-57
2022/06/24 12:53:44;;;;;;;4.28;2.05;;;;;;;;;;5141203;27;20505;-57
2022/06/24 12:56:09;;;;;;;6.00;3.10;;;;;;;;;;5140159;27;20111;-57
2022/06/24 12:58:34;;;;;;;4.32;1.73;;;;;;;;;;5138442;27;20194;-57
2022/06/24 13:01:00;;;;;;;3.58;1.88;;;;;;;;;;5139890;27;20042;-57
2022/06/24 13:03:25;;;;;;;6.90;2.35;;;;;;;;;;5139395;27;20046;-57
2022/06/24 13:05:50;;;;;;;2.83;1.58;;;;;;;;;;5140138;27;20071;-57
2022/06/24 13:08:16;;;;;;;2.70;1.85;;;;;;;;;;5138737;27;20054;-57
2022/06/24 13:10:41;;;;;;;3.88;2.65;;;;;;;;;;5142145;27;20146;-57
2022/06/24 13:13:07;;;;;;;1.73;0.70;;;;;;;;;;5140718;27;20482;-54
2022/06/24 13:15:32;;;;;;;3.20;1.80;;;;;;;;;;5137583;27;20108;-57
2022/06/24 13:17:58;;;;;;;4.22;1.23;;;;;;;;;;5141499;27;20578;-57
2022/06/24 13:20:23;;;;;;;3.65;0.60;;;;;;;;;;5137878;27;20137;-57
2022/06/24 13:22:49;;;;;;;3.22;1.73;;;;;;;;;;5139756;27;20103;-57
2022/06/24 13:25:15;;;;;;;6.70;2.17;;;;;;;;;;5140822;27;20127;-56
2022/06/24 13:27:40;;;;;;;5.20;1.20;;;;;;;;;;5140158;27;20103;-57
2022/06/24 13:30:07;;;;;;;7.28;2.97;;;;;;;;;;5137929;27;20055;-55
2022/06/24 13:32:32;;;;;;;2.53;1.35;;;;;;;;;;5141617;27;20066;-56
2022/06/24 13:34:57;;;;;;;8.57;2.00;;;;;;;;;;5143956;27;20571;-56
2022/06/24 13:37:23;;;;;;;8.88;2.75;;;;;;;;;;5141778;27;20284;-55
2022/06/24 13:39:48;;;;;;;2.08;1.08;;;;;;;;;;5137994;27;20053;-55
2022/06/24 13:42:14;;;;;;;5.13;1.00;;;;;;;;;;5141963;27;20505;-55
2022/06/24 13:44:39;;;;;;;5.10;1.17;;;;;;;;;;5116165;27;20047;-56
2022/06/24 13:47:07;;;;;;;1.85;0.93;;;;;;;;;;5141448;27;20031;-54
2022/06/24 13:49:32;;;;;;;9.50;2.85;;;;;;;;;;5138132;27;20158;-55
2022/06/24 13:51:57;;;;;;;2.90;1.65;;;;;;;;;;5143328;27;20716;-57
2022/06/24 13:54:23;;;;;;;3.10;1.33;;;;;;;;;;5136850;27;20041;-57
2022/06/24 13:56:48;;;;;;;14.50;2.45;;;;;;;;;;5140221;27;20572;-57
2022/06/24 13:59:16;;;;;;;4.05;1.92;;;;;;;;;;5140268;27;20047;-56
2022/06/24 14:01:42;;;;;;;10.25;2.97;;;;;;;;;;5137798;27;20142;-57
2022/06/24 14:04:07;;;;;;;3.83;1.33;;;;;;;;;;5139708;27;20034;-56
2022/06/24 14:06:32;;;;;;;7.53;1.65;;;;;;;;;;5139060;27;20599;-55
2022/06/24 14:08:58;;;;;;;2.72;1.63;;;;;;;;;;5137560;27;20138;-56
2022/06/24 14:11:23;;;;;;;0.73;0.52;;;;;;;;;;5139018;27;20064;-57
2022/06/24 14:13:49;;;;;;;4.40;1.25;;;;;;;;;;5138534;27;20137;-56
2022/06/24 14:16:14;;;;;;;5.03;1.35;;;;;;;;;;5136482;27;20399;-56
2022/06/24 14:18:39;;;;;;;4.28;1.70;;;;;;;;;;5137251;27;20069;-56
2022/06/24 14:21:05;;;;;;;3.60;1.25;;;;;;;;;;5139021;27;20126;-56
2022/06/24 14:26:14;;;;;;;3.60;1.05;;;;;;;;;;5138051;27;20150;-56
2022/06/24 14:28:39;;;;;;;5.15;2.33;;;;;;;;;;5138332;27;20519;-56
2022/06/24 14:31:07;;;;;;;3.78;1.20;;;;;;;;;;5140930;27;20046;-56
2022/06/24 14:33:32;;;;;;;2.38;1.20;;;;;;;;;;5142014;27;20436;-57
2022/06/24 14:35:57;;;;;;;4.22;1.38;;;;;;;;;;5140258;27;20054;-56
2022/06/24 14:41:06;;;;;;;3.70;1.27;;;;;;;;;;5140621;27;20065;-57
2022/06/24 14:43:32;;;;;;;3.75;1.15;;;;;;;;;;5141458;27;20051;-57
2022/06/24 14:45:57;;;;;;;4.10;1.30;;;;;;;;;;5137804;27;20043;-57
2022/06/24 14:48:23;;;;;;;4.80;1.15;;;;;;;;;;5140961;27;20101;-56
2022/06/24 14:50:48;;;;;;;4.95;1.60;;;;;;;;;;5139741;27;20069;-56
2022/06/24 14:53:14;;;;;;;8.38;0.95;;;;;;;;;;5139130;27;20576;-56
2022/06/24 14:55:39;;;;;;;3.70;1.10;;;;;;;;;;5139373;27;20027;-57
2022/06/24 14:58:04;;;;;;;1.45;0.82;;;;;;;;;;5138548;27;20066;-56
2022/06/24 15:00:39;;;;;;;1.48;0.68;;;;;;;;;;5137567;27;20117;-57